Time,TemperatureF,DewpointF,PressureIn,WindDirection,WindDirectionDegrees,WindSpeedMPH,WindSpeedGustMPH,Humidity,HourlyPrecipIn,Conditions,Clouds,dailyrainin,SoftwareType,DateUTC
2013-06-28 00:14:00,67.3,65.0,29.63,NE,53,1.0,4.0,93,0.00,,,0.00,weatherlink.com 1.10,2013-06-28 04:14:00,
2013-06-28 00:29:00,67.2,65.0,29.63,ENE,64,1.0,3.0,93,0.00,,,0.00,weatherlink.com 1.10,2013-06-28 04:29:00,
2013-06-28 00:44:00,66.9,65.0,29.62,NE,50,0.0,2.0,93,0.00,,,0.00,weatherlink.com 1.10,2013-06-28 04:44:00,
2013-06-28 00:59:00,66.9,65.0,29.62,NE,50,0.0,0.0,94,0.00,,,0.00,weatherlink.com 1.10,2013-06-28 04:59:00,
2013-06-28 01:14:00,66.9,65.0,29.62,NE,50,0.0,0.0,94,0.00,,,0.00,weatherlink.com 1.10,2013-06-28 05:14:00,
2013-06-28 01:29:00,66.9,66.0,29.62,NE,49,0.0,0.0,95,0.00,,,0.00,weatherlink.com 1.10,2013-06-28 05:29:00,
2013-06-28 01:44:00,66.9,66.0,29.62,ENE,57,2.0,2.0,95,0.00,,,0.00,weatherlink.com 1.10,2013-06-28 05:44:00,
2013-06-28 01:59:00,66.9,65.0,29.62,ENE,58,1.0,3.0,94,0.00,,,0.00,weatherlink.com 1.10,2013-06-28 05:59:00,
2013-06-28 02:14:00,66.8,65.0,29.61,ENE,58,0.0,2.0,94,0.00,,,0.00,weatherlink.com 1.10,2013-06-28 06:14:00,
2013-06-28 02:29:00,66.6,65.0,29.61,ENE,58,1.0,1.0,94,0.00,,,0.00,weatherlink.com 1.10,2013-06-28 06:29:00,
2013-06-28 02:44:00,66.2,65.0,29.61,ENE,57,0.0,2.0,94,0.00,,,0.00,weatherlink.com 1.10,2013-06-28 06:44:00,
2013-06-28 02:59:00,65.7,64.0,29.61,ENE,57,0.0,0.0,95,0.00,,,0.00,weatherlink.com 1.10,2013-06-28 06:59:00,
2013-06-28 03:14:00,65.7,65.0,29.61,NE,43,0.0,0.0,96,0.00,,,0.00,weatherlink.com 1.10,2013-06-28 07:14:00,
2013-06-28 03:29:00,65.5,64.0,29.61,NE,41,0.0,0.0,96,0.00,,,0.00,weatherlink.com 1.10,2013-06-28 07:29:00,
2013-06-28 03:44:00,65.1,64.0,29.61,NE,42,0.0,0.0,96,0.00,,,0.00,weatherlink.com 1.10,2013-06-28 07:44:00,
2013-06-28 03:59:00,64.7,64.0,29.60,NE,42,0.0,0.0,96,0.00,,,0.00,weatherlink.com 1.10,2013-06-28 07:59:00,
2013-06-28 04:14:00,64.3,63.0,29.59,NE,42,0.0,0.0,96,0.00,,,0.00,weatherlink.com 1.10,2013-06-28 08:14:00,
2013-06-28 04:30:00,63.9,63.0,29.59,NE,42,0.0,0.0,97,0.00,,,0.00,weatherlink.com 1.10,2013-06-28 08:30:00,
2013-06-28 04:45:00,63.6,63.0,29.59,NE,43,0.0,0.0,97,0.00,,,0.00,weatherlink.com 1.10,2013-06-28 08:45:00,
2013-06-28 05:00:00,63.7,63.0,29.59,NE,43,0.0,0.0,97,0.00,,,0.00,weatherlink.com 1.10,2013-06-28 09:00:00,
2013-06-28 05:15:00,63.6,63.0,29.59,NE,43,0.0,0.0,97,0.00,,,0.00,weatherlink.com 1.10,2013-06-28 09:15:00,
2013-06-28 05:30:00,63.8,63.0,29.60,NE,42,0.0,0.0,98,0.00,,,0.00,weatherlink.com 1.10,2013-06-28 09:30:00,
2013-06-28 05:45:00,64.3,64.0,29.60,NE,43,0.0,0.0,98,0.00,,,0.00,weatherlink.com 1.10,2013-06-28 09:45:00,
2013-06-28 06:00:00,64.2,64.0,29.60,NE,42,0.0,0.0,98,0.00,,,0.00,weatherlink.com 1.10,2013-06-28 10:00:00,
2013-06-28 06:15:00,64.7,64.0,29.60,NE,42,0.0,0.0,98,0.00,,,0.00,weatherlink.com 1.10,2013-06-28 10:15:00,
2013-06-28 06:30:00,65.1,65.0,29.60,NE,41,0.0,0.0,98,0.00,,,0.00,weatherlink.com 1.10,2013-06-28 10:30:00,
2013-06-28 06:45:00,66.4,66.0,29.59,ENE,71,2.0,4.0,98,0.00,,,0.00,weatherlink.com 1.10,2013-06-28 10:45:00,
2013-06-28 07:00:00,66.8,66.0,29.59,NE,46,3.0,3.0,98,0.00,,,0.00,weatherlink.com 1.10,2013-06-28 11:00:00,
2013-06-28 07:15:00,66.9,66.0,29.59,NE,53,0.0,2.0,98,0.00,,,0.00,weatherlink.com 1.10,2013-06-28 11:15:00,
2013-06-28 07:30:00,67.1,67.0,29.58,NNE,27,3.0,4.0,98,0.00,,,0.00,weatherlink.com 1.10,2013-06-28 11:30:00,
2013-06-28 07:45:00,67.6,67.0,29.59,NE,53,1.0,4.0,97,0.00,,,0.00,weatherlink.com 1.10,2013-06-28 11:45:00,
2013-06-28 08:00:00,68.1,67.0,29.58,NE,53,5.0,10.0,97,0.00,,,0.00,weatherlink.com 1.10,2013-06-28 12:00:00,
2013-06-28 08:15:00,68.8,68.0,29.58,NE,37,5.0,7.0,96,0.00,,,0.00,weatherlink.com 1.10,2013-06-28 12:15:00,
2013-06-28 08:30:00,69.2,68.0,29.58,ENE,65,4.0,8.0,95,0.00,,,0.00,weatherlink.com 1.10,2013-06-28 12:30:00,
2013-06-28 08:45:00,69.0,68.0,29.58,ENE,67,3.0,7.0,95,0.00,,,0.00,weatherlink.com 1.10,2013-06-28 12:45:00,
2013-06-28 09:00:00,69.0,68.0,29.58,ENE,58,5.0,6.0,95,0.00,,,0.00,weatherlink.com 1.10,2013-06-28 13:00:00,
2013-06-28 09:15:00,69.0,68.0,29.57,ENE,57,4.0,8.0,95,0.00,,,0.00,weatherlink.com 1.10,2013-06-28 13:15:00,
2013-06-28 09:30:00,69.2,68.0,29.57,ESE,107,2.0,6.0,96,0.00,,,0.00,weatherlink.com 1.10,2013-06-28 13:30:00,
2013-06-28 09:45:00,69.3,68.0,29.56,ENE,57,5.0,5.0,96,0.00,,,0.00,weatherlink.com 1.10,2013-06-28 13:45:00,
2013-06-28 10:00:00,69.2,68.0,29.56,NE,38,2.0,5.0,96,0.00,,,0.00,weatherlink.com 1.10,2013-06-28 14:00:00,
2013-06-28 10:15:00,70.1,69.0,29.56,East,82,0.0,7.0,96,0.00,,,0.00,weatherlink.com 1.10,2013-06-28 14:15:00,
2013-06-28 10:30:00,69.9,67.0,29.56,ENE,66,2.0,8.0,91,0.00,,,0.00,weatherlink.com 1.10,2013-06-28 14:30:00,
2013-06-28 10:45:00,70.1,67.0,29.56,NE,53,3.0,9.0,90,0.00,,,0.00,weatherlink.com 1.10,2013-06-28 14:45:00,
2013-06-28 11:00:00,70.3,67.0,29.55,NE,41,9.0,12.0,88,0.00,,,0.00,weatherlink.com 1.10,2013-06-28 15:00:00,
2013-06-28 11:15:00,70.7,67.0,29.55,ENE,62,3.0,11.0,89,0.00,,,0.00,weatherlink.com 1.10,2013-06-28 15:15:00,
2013-06-28 11:30:00,71.8,68.0,29.55,ENE,60,3.0,11.0,87,0.00,,,0.00,weatherlink.com 1.10,2013-06-28 15:30:00,
2013-06-28 11:45:00,73.0,69.0,29.55,ENE,62,0.0,12.0,87,0.00,,,0.00,weatherlink.com 1.10,2013-06-28 15:45:00,
2013-06-28 12:00:00,72.4,68.0,29.55,ENE,70,3.0,11.0,86,0.00,,,0.00,weatherlink.com 1.10,2013-06-28 16:00:00,
2013-06-28 12:15:00,72.6,69.0,29.54,NNE,20,13.0,13.0,87,0.00,,,0.00,weatherlink.com 1.10,2013-06-28 16:15:00,
2013-06-28 12:30:00,73.5,70.0,29.54,ENE,57,2.0,12.0,87,0.00,,,0.00,weatherlink.com 1.10,2013-06-28 16:30:00,
2013-06-28 12:45:00,75.2,70.0,29.53,NE,36,7.0,11.0,83,0.00,,,0.00,weatherlink.com 1.10,2013-06-28 16:45:00,
2013-06-28 13:00:00,75.2,69.0,29.53,NE,56,5.0,11.0,82,0.00,,,0.00,weatherlink.com 1.10,2013-06-28 17:00:00,
2013-06-28 13:15:00,74.1,69.0,29.52,ENE,67,2.0,9.0,83,0.00,,,0.00,weatherlink.com 1.10,2013-06-28 17:15:00,
2013-06-28 13:30:00,73.3,69.0,29.52,NE,41,4.0,8.0,85,0.00,,,0.00,weatherlink.com 1.10,2013-06-28 17:30:00,
2013-06-28 13:45:00,73.0,69.0,29.52,ENE,64,3.0,5.0,87,0.00,,,0.00,weatherlink.com 1.10,2013-06-28 17:45:00,
2013-06-28 14:00:00,72.3,69.0,29.53,ENE,68,5.0,9.0,88,0.00,,,0.00,weatherlink.com 1.10,2013-06-28 18:00:00,
2013-06-28 14:15:00,71.6,69.0,29.52,ENE,60,3.0,7.0,91,0.01,,,0.01,weatherlink.com 1.10,2013-06-28 18:15:00,
2013-06-28 14:30:00,70.7,68.0,29.52,NE,53,6.0,12.0,92,0.04,,,0.04,weatherlink.com 1.10,2013-06-28 18:30:00,
2013-06-28 14:45:00,70.4,68.0,29.53,East,81,2.0,8.0,93,0.05,,,0.05,weatherlink.com 1.10,2013-06-28 18:45:00,
2013-06-28 15:00:00,70.0,67.0,29.52,NE,34,2.0,6.0,90,0.05,,,0.05,weatherlink.com 1.10,2013-06-28 19:00:00,
2013-06-28 15:15:00,71.1,67.0,29.51,NE,36,3.0,8.0,86,0.04,,,0.05,weatherlink.com 1.10,2013-06-28 19:15:00,
2013-06-28 15:31:00,70.7,64.0,29.50,East,84,2.0,6.0,80,0.01,,,0.05,weatherlink.com 1.10,2013-06-28 19:31:00,
2013-06-28 15:46:00,71.1,65.0,29.50,ENE,57,2.0,5.0,82,0.00,,,0.05,weatherlink.com 1.10,2013-06-28 19:46:00,
2013-06-28 16:01:00,72.0,65.0,29.51,NNE,29,3.0,5.0,79,0.00,,,0.05,weatherlink.com 1.10,2013-06-28 20:01:00,
2013-06-28 16:16:00,71.7,65.0,29.50,ENE,60,4.0,11.0,80,0.00,,,0.05,weatherlink.com 1.10,2013-06-28 20:16:00,
2013-06-28 16:31:00,72.9,66.0,29.50,NE,34,7.0,12.0,79,0.00,,,0.05,weatherlink.com 1.10,2013-06-28 20:31:00,
2013-06-28 17:01:00,74.9,67.0,29.49,ESE,108,3.0,7.0,76,0.00,,,0.05,weatherlink.com 1.10,2013-06-28 21:01:00,
2013-06-28 17:16:00,74.2,65.0,29.50,ENE,74,3.0,10.0,74,0.00,,,0.05,weatherlink.com 1.10,2013-06-28 21:16:00,
2013-06-28 17:30:00,73.0,65.0,29.51,ENE,60,4.0,8.0,76,0.00,,,0.05,weatherlink.com 1.10,2013-06-28 21:30:00,
2013-06-28 17:45:00,72.6,66.0,29.52,NE,53,2.0,8.0,80,0.00,,,0.05,weatherlink.com 1.10,2013-06-28 21:45:00,
2013-06-28 18:00:00,72.8,66.0,29.52,ENE,66,5.0,7.0,80,0.00,,,0.05,weatherlink.com 1.10,2013-06-28 22:00:00,
2013-06-28 18:15:00,72.1,66.0,29.53,East,80,0.0,6.0,82,0.00,,,0.05,weatherlink.com 1.10,2013-06-28 22:15:00,
2013-06-28 18:30:00,66.2,62.0,29.57,South,191,1.0,23.0,85,0.40,,,0.45,weatherlink.com 1.10,2013-06-28 22:30:00,
2013-06-28 18:45:00,62.6,61.0,29.57,WNW,294,0.0,3.0,94,0.49,,,0.54,weatherlink.com 1.10,2013-06-28 22:45:00,
2013-06-28 19:00:00,62.6,62.0,29.55,West,264,0.0,1.0,96,0.50,,,0.55,weatherlink.com 1.10,2013-06-28 23:00:00,
2013-06-28 19:15:00,63.1,62.0,29.55,West,266,0.0,1.0,96,0.50,,,0.55,weatherlink.com 1.10,2013-06-28 23:15:00,
2013-06-28 19:30:00,63.2,62.0,29.53,West,266,0.0,0.0,96,0.08,,,0.55,weatherlink.com 1.10,2013-06-28 23:30:00,
2013-06-28 19:45:00,63.2,62.0,29.54,ENE,61,0.0,0.0,96,0.00,,,0.55,weatherlink.com 1.10,2013-06-28 23:45:00,
2013-06-28 20:00:00,63.1,62.0,29.54,ENE,58,2.0,2.0,97,0.00,,,0.55,weatherlink.com 1.10,2013-06-29 00:00:00,
2013-06-28 20:15:00,62.5,61.0,29.53,NE,46,2.0,6.0,96,0.00,,,0.55,weatherlink.com 1.10,2013-06-29 00:15:00,
2013-06-28 20:30:00,62.0,61.0,29.54,ENE,60,2.0,4.0,96,0.00,,,0.55,weatherlink.com 1.10,2013-06-29 00:30:00,
2013-06-28 20:45:00,61.6,61.0,29.55,NNE,32,0.0,1.0,97,0.00,,,0.55,weatherlink.com 1.10,2013-06-29 00:45:00,
2013-06-28 21:00:00,61.3,61.0,29.54,NE,39,0.0,0.0,97,0.00,,,0.55,weatherlink.com 1.10,2013-06-29 01:00:00,
2013-06-28 21:15:00,61.0,60.0,29.55,NE,39,0.0,0.0,97,0.00,,,0.55,weatherlink.com 1.10,2013-06-29 01:15:00,
2013-06-28 21:30:00,60.7,60.0,29.56,NE,39,0.0,0.0,97,0.00,,,0.55,weatherlink.com 1.10,2013-06-29 01:30:00,
2013-06-28 21:45:00,60.8,60.0,29.57,NE,51,0.0,0.0,98,0.00,,,0.55,weatherlink.com 1.10,2013-06-29 01:45:00,
2013-06-28 22:00:00,60.7,60.0,29.57,NE,51,0.0,0.0,98,0.00,,,0.55,weatherlink.com 1.10,2013-06-29 02:00:00,
2013-06-28 22:15:00,60.3,60.0,29.57,NE,51,0.0,0.0,98,0.00,,,0.55,weatherlink.com 1.10,2013-06-29 02:15:00,
2013-06-28 22:30:00,60.4,60.0,29.57,NE,51,0.0,0.0,98,0.00,,,0.55,weatherlink.com 1.10,2013-06-29 02:30:00,
2013-06-28 22:45:00,60.5,60.0,29.57,ENE,57,0.0,0.0,98,0.00,,,0.55,weatherlink.com 1.10,2013-06-29 02:45:00,
2013-06-28 23:00:00,60.7,60.0,29.56,ENE,57,0.0,0.0,98,0.01,,,0.56,weatherlink.com 1.10,2013-06-29 03:00:00,
2013-06-28 23:15:00,60.7,60.0,29.55,ENE,57,0.0,0.0,98,0.01,,,0.56,weatherlink.com 1.10,2013-06-29 03:15:00,
2013-06-28 23:30:00,60.4,60.0,29.55,ENE,57,0.0,0.0,98,0.01,,,0.56,weatherlink.com 1.10,2013-06-29 03:30:00,
2013-06-28 23:45:00,60.0,60.0,29.55,ENE,57,0.0,0.0,98,0.01,,,0.56,weatherlink.com 1.10,2013-06-29 03:45:00,